<?xml version="1.0" encoding="UTF-8" standalone="no" ?>
<gpx xmlns="http://www.topografix.com/GPX/1/1" xmlns:xsi="http://www.w3.org/2001/XMLSchema-instance" xsi:schemaLocation="http://www.topografix.com/GPX/1/1 http://www.topografix.com/GPX/1/1/gpx.xsd" version="1.1" creator="VisuGPX - https://www.visugpx.com">
  <metadata>
    <name>ROP_LacanauDeMios_15km</name>
  </metadata>
  <trk>
    <name><![CDATA[ROP_LacanauDeMios_15km_1]]></name>
    <extensions>
      <line xmlns="http://www.topografix.com/GPX/gpx_style/0/2">
        <color>0000FF</color>
        <width>4</width>
      </line>
    </extensions>
    <trkseg>
      <trkpt lat="44.65127" lon="-0.89643">
        <ele>28.4</ele>
        <time>2021-06-02T11:00:00.000Z</time>
      </trkpt>
      <trkpt lat="44.65127" lon="-0.89643">
        <ele>28.4</ele>
        <time>2021-06-02T11:00:00.000Z</time>
      </trkpt>
      <trkpt lat="44.65127" lon="-0.89643">
        <ele>28.4</ele>
        <time>2021-06-02T11:00:00.000Z</time>
      </trkpt>
      <trkpt lat="44.65131" lon="-0.89644">
        <ele>28.7</ele>
        <time>2021-06-02T11:00:02.378Z</time>
      </trkpt>
      <trkpt lat="44.65132" lon="-0.89641">
        <ele>28.8</ele>
        <time>2021-06-02T11:00:03.466Z</time>
      </trkpt>
      <trkpt lat="44.65153" lon="-0.89645">
        <ele>30.1</ele>
        <time>2021-06-02T11:00:14.772Z</time>
      </trkpt>
      <trkpt lat="44.65169" lon="-0.89631">
        <ele>31</ele>
        <time>2021-06-02T11:00:23.943Z</time>
      </trkpt>
      <trkpt lat="44.65213" lon="-0.89634">
        <ele>31</ele>
        <time>2021-06-02T11:00:36.384Z</time>
      </trkpt>
      <trkpt lat="44.65259" lon="-0.89652">
        <ele>31</ele>
        <time>2021-06-02T11:00:49.869Z</time>
      </trkpt>
      <trkpt lat="44.65262" lon="-0.89647">
        <ele>30.9</ele>
        <time>2021-06-02T11:00:50.613Z</time>
      </trkpt>
      <trkpt lat="44.65271" lon="-0.89639">
        <ele>30.8</ele>
        <time>2021-06-02T11:00:52.590Z</time>
      </trkpt>
      <trkpt lat="44.65287" lon="-0.89614">
        <ele>30.4</ele>
        <time>2021-06-02T11:00:56.635Z</time>
      </trkpt>
      <trkpt lat="44.65294" lon="-0.89597">
        <ele>30.1</ele>
        <time>2021-06-02T11:00:58.869Z</time>
      </trkpt>
      <trkpt lat="44.65297" lon="-0.89558">
        <ele>29.4</ele>
        <time>2021-06-02T11:01:03.151Z</time>
      </trkpt>
      <trkpt lat="44.65316" lon="-0.89541">
        <ele>28.5</ele>
      </trkpt>
      <trkpt lat="44.65331" lon="-0.89525">
        <ele>27.7</ele>
        <time>2021-06-02T11:01:12.526Z</time>
      </trkpt>
      <trkpt lat="44.65351" lon="-0.89512">
        <ele>28.2</ele>
      </trkpt>
      <trkpt lat="44.65361" lon="-0.89493">
        <ele>28.6</ele>
      </trkpt>
      <trkpt lat="44.65366" lon="-0.89472">
        <ele>28.8</ele>
      </trkpt>
      <trkpt lat="44.65376" lon="-0.89445">
        <ele>29.2</ele>
        <time>2021-06-02T11:01:15.498Z</time>
      </trkpt>
      <trkpt lat="44.65382" lon="-0.89381">
        <ele>29.6</ele>
        <time>2021-06-02T11:01:24.780Z</time>
      </trkpt>
      <trkpt lat="44.65394" lon="-0.89341">
        <ele>30.2</ele>
        <time>2021-06-02T11:01:34.276Z</time>
      </trkpt>
      <trkpt lat="44.65408" lon="-0.89302">
        <ele>31.1</ele>
        <time>2021-06-02T11:02:17.442Z</time>
      </trkpt>
      <trkpt lat="44.65483" lon="-0.89231">
        <ele>36.1</ele>
        <time>2021-06-02T11:03:03.699Z</time>
      </trkpt>
      <trkpt lat="44.65485" lon="-0.89215">
        <ele>35.7</ele>
        <time>2021-06-02T11:03:05.303Z</time>
      </trkpt>
      <trkpt lat="44.65497" lon="-0.89185">
        <ele>34.8</ele>
        <time>2021-06-02T11:03:07.138Z</time>
      </trkpt>
      <trkpt lat="44.65506" lon="-0.89167">
        <ele>34.1</ele>
        <time>2021-06-02T11:03:08.912Z</time>
      </trkpt>
      <trkpt lat="44.65518" lon="-0.89144">
        <ele>33.9</ele>
        <time>2021-06-02T11:03:15.239Z</time>
      </trkpt>
      <trkpt lat="44.65528" lon="-0.89123">
        <ele>33.6</ele>
        <time>2021-06-02T11:03:18.017Z</time>
      </trkpt>
      <trkpt lat="44.65542" lon="-0.89097">
        <ele>33.3</ele>
      </trkpt>
      <trkpt lat="44.65535" lon="-0.89049">
        <ele>33.4</ele>
        <time>2021-06-02T11:03:40.976Z</time>
      </trkpt>
      <trkpt lat="44.6554" lon="-0.89026">
        <ele>33.7</ele>
        <time>2021-06-02T11:03:47.654Z</time>
      </trkpt>
      <trkpt lat="44.65588" lon="-0.8895">
        <ele>33.5</ele>
      </trkpt>
      <trkpt lat="44.65596" lon="-0.88935">
        <ele>33.5</ele>
        <time>2021-06-02T11:04:04.163Z</time>
      </trkpt>
      <trkpt lat="44.6562" lon="-0.88916">
        <ele>33.9</ele>
        <time>2021-06-02T11:04:06.326Z</time>
      </trkpt>
      <trkpt lat="44.65701" lon="-0.88863">
        <ele>34.2</ele>
        <time>2021-06-02T11:04:10.927Z</time>
      </trkpt>
      <trkpt lat="44.65709" lon="-0.88853">
        <ele>34.2</ele>
        <time>2021-06-02T11:04:15.598Z</time>
      </trkpt>
      <trkpt lat="44.65748" lon="-0.88771">
        <ele>32.8</ele>
        <time>2021-06-02T11:04:40.143Z</time>
      </trkpt>
      <trkpt lat="44.65763" lon="-0.88755">
        <ele>32.5</ele>
        <time>2021-06-02T11:04:56.647Z</time>
      </trkpt>
      <trkpt lat="44.65775" lon="-0.88744">
        <ele>32.7</ele>
        <time>2021-06-02T11:05:09.781Z</time>
      </trkpt>
      <trkpt lat="44.6587" lon="-0.88732">
        <ele>34.8</ele>
        <time>2021-06-02T11:05:43.523Z</time>
      </trkpt>
      <trkpt lat="44.66" lon="-0.88681">
        <ele>39</ele>
        <time>2021-06-02T11:06:36.836Z</time>
      </trkpt>
      <trkpt lat="44.6605" lon="-0.88665">
        <ele>37.1</ele>
        <time>2021-06-02T11:06:43.784Z</time>
      </trkpt>
      <trkpt lat="44.66179" lon="-0.88623">
        <ele>35.7</ele>
        <time>2021-06-02T11:08:15.190Z</time>
      </trkpt>
      <trkpt lat="44.66207" lon="-0.88629">
        <ele>36.3</ele>
        <time>2021-06-02T11:08:20.555Z</time>
      </trkpt>
      <trkpt lat="44.66345" lon="-0.88763">
        <ele>38.9</ele>
        <time>2021-06-02T11:08:36.187Z</time>
      </trkpt>
      <trkpt lat="44.66358" lon="-0.88786">
        <ele>39.2</ele>
        <time>2021-06-02T11:08:44.403Z</time>
      </trkpt>
      <trkpt lat="44.66389" lon="-0.88793">
        <ele>38.2</ele>
        <time>2021-06-02T11:08:48.605Z</time>
      </trkpt>
      <trkpt lat="44.66462" lon="-0.88762">
        <ele>36.5</ele>
        <time>2021-06-02T11:08:58.086Z</time>
      </trkpt>
      <trkpt lat="44.66472" lon="-0.88738">
        <ele>36.1</ele>
        <time>2021-06-02T11:09:09.350Z</time>
      </trkpt>
      <trkpt lat="44.66544" lon="-0.88741">
        <ele>37.4</ele>
        <time>2021-06-02T11:09:13.348Z</time>
      </trkpt>
      <trkpt lat="44.6657" lon="-0.8873">
        <ele>37.6</ele>
        <time>2021-06-02T11:09:27.594Z</time>
      </trkpt>
      <trkpt lat="44.66602" lon="-0.88725">
        <ele>37.9</ele>
        <time>2021-06-02T11:09:37.978Z</time>
      </trkpt>
      <trkpt lat="44.66692" lon="-0.88659">
        <ele>39.4</ele>
        <time>2021-06-02T11:09:46.041Z</time>
      </trkpt>
      <trkpt lat="44.66695" lon="-0.88628">
        <ele>39.4</ele>
        <time>2021-06-02T11:09:55.173Z</time>
      </trkpt>
      <trkpt lat="44.66689" lon="-0.88602">
        <ele>38.9</ele>
        <time>2021-06-02T11:10:05.012Z</time>
      </trkpt>
      <trkpt lat="44.66677" lon="-0.88578">
        <ele>38.5</ele>
        <time>2021-06-02T11:10:10.360Z</time>
      </trkpt>
      <trkpt lat="44.66659" lon="-0.88558">
        <ele>38.6</ele>
        <time>2021-06-02T11:10:19.408Z</time>
      </trkpt>
      <trkpt lat="44.66659" lon="-0.8854">
        <ele>39.2</ele>
        <time>2021-06-02T11:10:25.603Z</time>
      </trkpt>
      <trkpt lat="44.66683" lon="-0.88523">
        <ele>40.5</ele>
        <time>2021-06-02T11:10:38.734Z</time>
      </trkpt>
      <trkpt lat="44.66716" lon="-0.88523">
        <ele>41.1</ele>
        <time>2021-06-02T11:10:49.916Z</time>
      </trkpt>
      <trkpt lat="44.66748" lon="-0.88511">
        <ele>41.8</ele>
        <time>2021-06-02T11:11:01.514Z</time>
      </trkpt>
      <trkpt lat="44.66759" lon="-0.88479">
        <ele>42.9</ele>
        <time>2021-06-02T11:11:13.385Z</time>
      </trkpt>
      <trkpt lat="44.66768" lon="-0.88469">
        <ele>43.3</ele>
        <time>2021-06-02T11:11:18.144Z</time>
      </trkpt>
      <trkpt lat="44.6687" lon="-0.88413">
        <ele>44.7</ele>
        <time>2021-06-02T11:11:53.170Z</time>
      </trkpt>
      <trkpt lat="44.66899" lon="-0.8841">
        <ele>43.6</ele>
        <time>2021-06-02T11:11:57.081Z</time>
      </trkpt>
      <trkpt lat="44.66915" lon="-0.88402">
        <ele>42.9</ele>
        <time>2021-06-02T11:11:59.292Z</time>
      </trkpt>
      <trkpt lat="44.66927" lon="-0.88381">
        <ele>42.5</ele>
        <time>2021-06-02T11:12:02.375Z</time>
      </trkpt>
      <trkpt lat="44.66944" lon="-0.8837">
        <ele>42</ele>
        <time>2021-06-02T11:12:05.195Z</time>
      </trkpt>
      <trkpt lat="44.66966" lon="-0.88331">
        <ele>40.2</ele>
        <time>2021-06-02T11:12:09.422Z</time>
      </trkpt>
      <trkpt lat="44.6698" lon="-0.88312">
        <ele>39.8</ele>
        <time>2021-06-02T11:12:12.565Z</time>
      </trkpt>
      <trkpt lat="44.66992" lon="-0.88266">
        <ele>39.4</ele>
        <time>2021-06-02T11:12:18.860Z</time>
      </trkpt>
      <trkpt lat="44.67021" lon="-0.88203">
        <ele>39.1</ele>
        <time>2021-06-02T11:12:32.737Z</time>
      </trkpt>
      <trkpt lat="44.67022" lon="-0.88201">
        <ele>39.1</ele>
        <time>2021-06-02T11:12:33.228Z</time>
      </trkpt>
      <trkpt lat="44.67022" lon="-0.88201">
        <ele>39.1</ele>
        <time>2021-06-02T11:12:33.228Z</time>
      </trkpt>
      <trkpt lat="44.67029" lon="-0.88187">
        <ele>39.1</ele>
        <time>2021-06-02T11:12:36.665Z</time>
      </trkpt>
      <trkpt lat="44.67031" lon="-0.88174">
        <ele>39</ele>
        <time>2021-06-02T11:12:38.395Z</time>
      </trkpt>
      <trkpt lat="44.6703" lon="-0.8816">
        <ele>38.9</ele>
        <time>2021-06-02T11:12:40.238Z</time>
      </trkpt>
      <trkpt lat="44.67027" lon="-0.88149">
        <ele>38.9</ele>
        <time>2021-06-02T11:12:42.604Z</time>
      </trkpt>
      <trkpt lat="44.67022" lon="-0.8814">
        <ele>38.8</ele>
        <time>2021-06-02T11:12:44.055Z</time>
      </trkpt>
      <trkpt lat="44.67023" lon="-0.88109">
        <ele>38.6</ele>
        <time>2021-06-02T11:12:48.172Z</time>
      </trkpt>
      <trkpt lat="44.67054" lon="-0.88109">
        <ele>38.1</ele>
        <time>2021-06-02T11:12:53.452Z</time>
      </trkpt>
      <trkpt lat="44.67045" lon="-0.88065">
        <ele>38.3</ele>
        <time>2021-06-02T11:13:03.195Z</time>
      </trkpt>
      <trkpt lat="44.67058" lon="-0.88038">
        <ele>38.3</ele>
        <time>2021-06-02T11:13:09.744Z</time>
      </trkpt>
      <trkpt lat="44.67065" lon="-0.87996">
        <ele>38.4</ele>
        <time>2021-06-02T11:13:18.674Z</time>
      </trkpt>
      <trkpt lat="44.67066" lon="-0.87935">
        <ele>40.1</ele>
        <time>2021-06-02T11:13:37.788Z</time>
      </trkpt>
      <trkpt lat="44.67084" lon="-0.87869">
        <ele>40.1</ele>
        <time>2021-06-02T11:13:51.985Z</time>
      </trkpt>
      <trkpt lat="44.67077" lon="-0.87824">
        <ele>41.9</ele>
        <time>2021-06-02T11:14:08.703Z</time>
      </trkpt>
      <trkpt lat="44.67084" lon="-0.87793">
        <ele>42.4</ele>
        <time>2021-06-02T11:14:16.849Z</time>
      </trkpt>
      <trkpt lat="44.67119" lon="-0.87737">
        <ele>43.2</ele>
        <time>2021-06-02T11:14:34.223Z</time>
      </trkpt>
      <trkpt lat="44.67143" lon="-0.87717">
        <ele>42.7</ele>
        <time>2021-06-02T11:14:38.872Z</time>
      </trkpt>
      <trkpt lat="44.67199" lon="-0.87722">
        <ele>42</ele>
        <time>2021-06-02T11:14:48.879Z</time>
      </trkpt>
      <trkpt lat="44.67211" lon="-0.87708">
        <ele>42</ele>
        <time>2021-06-02T11:14:53.283Z</time>
      </trkpt>
      <trkpt lat="44.67285" lon="-0.87694">
        <ele>42.4</ele>
        <time>2021-06-02T11:15:15.458Z</time>
      </trkpt>
      <trkpt lat="44.67313" lon="-0.87686">
        <ele>42.8</ele>
        <time>2021-06-02T11:15:24.714Z</time>
      </trkpt>
      <trkpt lat="44.67333" lon="-0.87665">
        <ele>43</ele>
        <time>2021-06-02T11:15:32.321Z</time>
      </trkpt>
      <trkpt lat="44.67361" lon="-0.87656">
        <ele>43.3</ele>
        <time>2021-06-02T11:15:41.291Z</time>
      </trkpt>
      <trkpt lat="44.67386" lon="-0.87621">
        <ele>43.3</ele>
        <time>2021-06-02T11:15:51.254Z</time>
      </trkpt>
      <trkpt lat="44.67415" lon="-0.87603">
        <ele>43.2</ele>
        <time>2021-06-02T11:15:59.793Z</time>
      </trkpt>
      <trkpt lat="44.67434" lon="-0.8759">
        <ele>42.9</ele>
        <time>2021-06-02T11:16:03.479Z</time>
      </trkpt>
      <trkpt lat="44.6747" lon="-0.87569">
        <ele>42.7</ele>
        <time>2021-06-02T11:16:13.684Z</time>
      </trkpt>
      <trkpt lat="44.675" lon="-0.87525">
        <ele>43.4</ele>
        <time>2021-06-02T11:16:28.051Z</time>
      </trkpt>
      <trkpt lat="44.67531" lon="-0.87511">
        <ele>43.7</ele>
        <time>2021-06-02T11:16:38.094Z</time>
      </trkpt>
      <trkpt lat="44.67535" lon="-0.87504">
        <ele>43.9</ele>
        <time>2021-06-02T11:16:40.623Z</time>
      </trkpt>
      <trkpt lat="44.67555" lon="-0.87472">
        <ele>44.3</ele>
        <time>2021-06-02T11:16:50.356Z</time>
      </trkpt>
      <trkpt lat="44.67578" lon="-0.87435">
        <ele>44.1</ele>
        <time>2021-06-02T11:16:59.429Z</time>
      </trkpt>
      <trkpt lat="44.67603" lon="-0.87425">
        <ele>43.8</ele>
        <time>2021-06-02T11:17:04.121Z</time>
      </trkpt>
      <trkpt lat="44.67625" lon="-0.87383">
        <ele>43.9</ele>
        <time>2021-06-02T11:17:14.862Z</time>
      </trkpt>
      <trkpt lat="44.67633" lon="-0.87352">
        <ele>44</ele>
        <time>2021-06-02T11:17:21.754Z</time>
      </trkpt>
      <trkpt lat="44.67646" lon="-0.87278">
        <ele>45.2</ele>
        <time>2021-06-02T11:17:40.955Z</time>
      </trkpt>
      <trkpt lat="44.6766" lon="-0.87259">
        <ele>45.7</ele>
        <time>2021-06-02T11:17:48.141Z</time>
      </trkpt>
      <trkpt lat="44.67702" lon="-0.87257">
        <ele>47</ele>
        <time>2021-06-02T11:18:04.702Z</time>
      </trkpt>
      <trkpt lat="44.67732" lon="-0.87242">
        <ele>48.5</ele>
        <time>2021-06-02T11:18:20.133Z</time>
      </trkpt>
      <trkpt lat="44.67758" lon="-0.87234">
        <ele>49.2</ele>
        <time>2021-06-02T11:18:30.035Z</time>
      </trkpt>
      <trkpt lat="44.67772" lon="-0.87241">
        <ele>48.7</ele>
        <time>2021-06-02T11:18:32.117Z</time>
      </trkpt>
      <trkpt lat="44.67785" lon="-0.8724">
        <ele>48.4</ele>
        <time>2021-06-02T11:18:34.161Z</time>
      </trkpt>
      <trkpt lat="44.67815" lon="-0.87215">
        <ele>48.3</ele>
        <time>2021-06-02T11:18:43.595Z</time>
      </trkpt>
      <trkpt lat="44.67837" lon="-0.87214">
        <ele>47.9</ele>
        <time>2021-06-02T11:18:47.252Z</time>
      </trkpt>
      <trkpt lat="44.67882" lon="-0.87183">
        <ele>48.6</ele>
        <time>2021-06-02T11:19:03.480Z</time>
      </trkpt>
      <trkpt lat="44.67896" lon="-0.87138">
        <ele>50</ele>
        <time>2021-06-02T11:19:19.067Z</time>
      </trkpt>
      <trkpt lat="44.67896" lon="-0.87138">
        <ele>50</ele>
        <time>2021-06-02T11:19:19.067Z</time>
      </trkpt>
      <trkpt lat="44.67905" lon="-0.87107">
        <ele>51.1</ele>
        <time>2021-06-02T11:19:30.538Z</time>
      </trkpt>
      <trkpt lat="44.67924" lon="-0.87065">
        <ele>51.7</ele>
        <time>2021-06-02T11:19:42.372Z</time>
      </trkpt>
      <trkpt lat="44.67956" lon="-0.87044">
        <ele>51.1</ele>
        <time>2021-06-02T11:19:48.324Z</time>
      </trkpt>
      <trkpt lat="44.67954" lon="-0.86992">
        <ele>50.2</ele>
        <time>2021-06-02T11:19:54.055Z</time>
      </trkpt>
      <trkpt lat="44.67963" lon="-0.8695">
        <ele>48.4</ele>
        <time>2021-06-02T11:19:57.571Z</time>
      </trkpt>
      <trkpt lat="44.67991" lon="-0.86899">
        <ele>47</ele>
        <time>2021-06-02T11:20:04.200Z</time>
      </trkpt>
      <trkpt lat="44.68036" lon="-0.86868">
        <ele>47.7</ele>
        <time>2021-06-02T11:20:20.427Z</time>
      </trkpt>
      <trkpt lat="44.68046" lon="-0.86844">
        <ele>48</ele>
        <time>2021-06-02T11:20:26.915Z</time>
      </trkpt>
      <trkpt lat="44.68117" lon="-0.86764">
        <ele>50.7</ele>
        <time>2021-06-02T11:21:02.199Z</time>
      </trkpt>
      <trkpt lat="44.68118" lon="-0.86762">
        <ele>50.7</ele>
        <time>2021-06-02T11:21:02.690Z</time>
      </trkpt>
      <trkpt lat="44.68104" lon="-0.86738">
        <ele>50.4</ele>
        <time>2021-06-02T11:21:06.571Z</time>
      </trkpt>
      <trkpt lat="44.68094" lon="-0.86714">
        <ele>49.8</ele>
        <time>2021-06-02T11:21:09.439Z</time>
      </trkpt>
      <trkpt lat="44.68094" lon="-0.86678">
        <ele>49.4</ele>
        <time>2021-06-02T11:21:13.826Z</time>
      </trkpt>
      <trkpt lat="44.68081" lon="-0.8663">
        <ele>49</ele>
        <time>2021-06-02T11:21:20.469Z</time>
      </trkpt>
      <trkpt lat="44.6801" lon="-0.86574">
        <ele>50.1</ele>
        <time>2021-06-02T11:21:46.706Z</time>
      </trkpt>
      <trkpt lat="44.67989" lon="-0.86547">
        <ele>50.9</ele>
        <time>2021-06-02T11:21:57.529Z</time>
      </trkpt>
      <trkpt lat="44.67987" lon="-0.8653">
        <ele>51.3</ele>
        <time>2021-06-02T11:22:02.465Z</time>
      </trkpt>
      <trkpt lat="44.67985" lon="-0.8646">
        <ele>52.8</ele>
        <time>2021-06-02T11:22:21.891Z</time>
      </trkpt>
      <trkpt lat="44.68027" lon="-0.86241">
        <ele>50.4</ele>
        <time>2021-06-02T11:22:49.790Z</time>
      </trkpt>
      <trkpt lat="44.68017" lon="-0.86201">
        <ele>50.7</ele>
        <time>2021-06-02T11:22:59.158Z</time>
      </trkpt>
      <trkpt lat="44.67994" lon="-0.86159">
        <ele>51.6</ele>
        <time>2021-06-02T11:23:12.783Z</time>
      </trkpt>
      <trkpt lat="44.67964" lon="-0.86158">
        <ele>53.1</ele>
        <time>2021-06-02T11:23:27.600Z</time>
      </trkpt>
      <trkpt lat="44.67961" lon="-0.86155">
        <ele>53.3</ele>
        <time>2021-06-02T11:23:29.471Z</time>
      </trkpt>
      <trkpt lat="44.67968" lon="-0.86096">
        <ele>55.3</ele>
        <time>2021-06-02T11:23:50.072Z</time>
      </trkpt>
      <trkpt lat="44.67975" lon="-0.86084">
        <ele>55.6</ele>
        <time>2021-06-02T11:23:54.223Z</time>
      </trkpt>
      <trkpt lat="44.67975" lon="-0.86084">
        <ele>55.6</ele>
        <time>2021-06-02T11:23:54.223Z</time>
      </trkpt>
      <trkpt lat="44.67991" lon="-0.86055">
        <ele>54.8</ele>
        <time>2021-06-02T11:23:57.995Z</time>
      </trkpt>
      <trkpt lat="44.68012" lon="-0.86037">
        <ele>54.4</ele>
        <time>2021-06-02T11:24:02.177Z</time>
      </trkpt>
      <trkpt lat="44.68036" lon="-0.86022">
        <ele>54.1</ele>
        <time>2021-06-02T11:24:06.925Z</time>
      </trkpt>
      <trkpt lat="44.68038" lon="-0.86003">
        <ele>54</ele>
        <time>2021-06-02T11:24:09.533Z</time>
      </trkpt>
      <trkpt lat="44.68057" lon="-0.85973">
        <ele>53.7</ele>
        <time>2021-06-02T11:24:14.760Z</time>
      </trkpt>
      <trkpt lat="44.68075" lon="-0.85926">
        <ele>53.1</ele>
        <time>2021-06-02T11:24:21.251Z</time>
      </trkpt>
      <trkpt lat="44.68088" lon="-0.85912">
        <ele>53.1</ele>
        <time>2021-06-02T11:24:25.875Z</time>
      </trkpt>
      <trkpt lat="44.68096" lon="-0.85892">
        <ele>53.2</ele>
        <time>2021-06-02T11:24:30.757Z</time>
      </trkpt>
      <trkpt lat="44.68102" lon="-0.85878">
        <ele>53.3</ele>
        <time>2021-06-02T11:24:34.320Z</time>
      </trkpt>
      <trkpt lat="44.6811" lon="-0.85861">
        <ele>53.5</ele>
        <time>2021-06-02T11:24:39.006Z</time>
      </trkpt>
      <trkpt lat="44.68124" lon="-0.85842">
        <ele>53.9</ele>
        <time>2021-06-02T11:24:45.775Z</time>
      </trkpt>
      <trkpt lat="44.68122" lon="-0.8584">
        <ele>53.9</ele>
        <time>2021-06-02T11:24:46.468Z</time>
      </trkpt>
      <trkpt lat="44.68121" lon="-0.85838">
        <ele>53.9</ele>
        <time>2021-06-02T11:24:46.959Z</time>
      </trkpt>
      <trkpt lat="44.68115" lon="-0.85828">
        <ele>53.7</ele>
        <time>2021-06-02T11:24:48.446Z</time>
      </trkpt>
      <trkpt lat="44.68146" lon="-0.85781">
        <ele>53.4</ele>
        <time>2021-06-02T11:25:00.140Z</time>
      </trkpt>
      <trkpt lat="44.68176" lon="-0.85752">
        <ele>52.9</ele>
        <time>2021-06-02T11:25:06.528Z</time>
      </trkpt>
      <trkpt lat="44.68197" lon="-0.85722">
        <ele>52.3</ele>
        <time>2021-06-02T11:25:11.393Z</time>
      </trkpt>
      <trkpt lat="44.68207" lon="-0.85676">
        <ele>52</ele>
        <time>2021-06-02T11:25:17.797Z</time>
      </trkpt>
      <trkpt lat="44.68224" lon="-0.85639">
        <ele>52.3</ele>
        <time>2021-06-02T11:25:27.493Z</time>
      </trkpt>
      <trkpt lat="44.68244" lon="-0.85617">
        <ele>52.8</ele>
        <time>2021-06-02T11:25:36.242Z</time>
      </trkpt>
      <trkpt lat="44.68296" lon="-0.85579">
        <ele>53.6</ele>
        <time>2021-06-02T11:25:55.157Z</time>
      </trkpt>
      <trkpt lat="44.68314" lon="-0.85549">
        <ele>54.3</ele>
        <time>2021-06-02T11:26:05.390Z</time>
      </trkpt>
      <trkpt lat="44.6835" lon="-0.85497">
        <ele>56.3</ele>
        <time>2021-06-02T11:26:27.985Z</time>
      </trkpt>
      <trkpt lat="44.68367" lon="-0.85495">
        <ele>56.7</ele>
        <time>2021-06-02T11:26:34.120Z</time>
      </trkpt>
      <trkpt lat="44.68385" lon="-0.85471">
        <ele>57</ele>
        <time>2021-06-02T11:26:41.998Z</time>
      </trkpt>
      <trkpt lat="44.68394" lon="-0.8544">
        <ele>57.1</ele>
        <time>2021-06-02T11:26:48.990Z</time>
      </trkpt>
      <trkpt lat="44.68393" lon="-0.8543">
        <ele>57</ele>
        <time>2021-06-02T11:26:50.247Z</time>
      </trkpt>
      <trkpt lat="44.68393" lon="-0.8543">
        <ele>57</ele>
        <time>2021-06-02T11:26:50.247Z</time>
      </trkpt>
      <trkpt lat="44.68387" lon="-0.85397">
        <ele>56.2</ele>
        <time>2021-06-02T11:26:53.663Z</time>
      </trkpt>
      <trkpt lat="44.68386" lon="-0.85335">
        <ele>54.9</ele>
        <time>2021-06-02T11:27:00.114Z</time>
      </trkpt>
      <trkpt lat="44.68406" lon="-0.85231">
        <ele>55.6</ele>
        <time>2021-06-02T11:27:23.724Z</time>
      </trkpt>
      <trkpt lat="44.68416" lon="-0.85184">
        <ele>56</ele>
        <time>2021-06-02T11:27:34.731Z</time>
      </trkpt>
      <trkpt lat="44.68301" lon="-0.85126">
        <ele>55</ele>
        <time>2021-06-02T11:27:57.790Z</time>
      </trkpt>
      <trkpt lat="44.67918" lon="-0.84933">
        <ele>59.4</ele>
        <time>2021-06-02T11:30:05.321Z</time>
      </trkpt>
      <trkpt lat="44.6781" lon="-0.84878">
        <ele>55.4</ele>
        <time>2021-06-02T11:30:21.231Z</time>
      </trkpt>
      <trkpt lat="44.67808" lon="-0.84877">
        <ele>55.4</ele>
        <time>2021-06-02T11:30:21.831Z</time>
      </trkpt>
      <trkpt lat="44.6781" lon="-0.84878">
        <ele>55.4</ele>
        <time>2021-06-02T11:30:22.430Z</time>
      </trkpt>
      <trkpt lat="44.67801" lon="-0.84889">
        <ele>55.1</ele>
        <time>2021-06-02T11:30:24.258Z</time>
      </trkpt>
      <trkpt lat="44.67793" lon="-0.85001">
        <ele>54.5</ele>
        <time>2021-06-02T11:30:39.509Z</time>
      </trkpt>
      <trkpt lat="44.67798" lon="-0.85038">
        <ele>54.3</ele>
        <time>2021-06-02T11:30:44.613Z</time>
      </trkpt>
      <trkpt lat="44.67811" lon="-0.8506">
        <ele>54.5</ele>
        <time>2021-06-02T11:30:50.926Z</time>
      </trkpt>
      <trkpt lat="44.67814" lon="-0.85113">
        <ele>54.3</ele>
        <time>2021-06-02T11:31:00.802Z</time>
      </trkpt>
      <trkpt lat="44.67804" lon="-0.85151">
        <ele>53.9</ele>
        <time>2021-06-02T11:31:05.849Z</time>
      </trkpt>
      <trkpt lat="44.67804" lon="-0.85151">
        <ele>53.9</ele>
        <time>2021-06-02T11:31:05.849Z</time>
      </trkpt>
      <trkpt lat="44.67804" lon="-0.85151">
        <ele>53.9</ele>
        <time>2021-06-02T11:31:05.849Z</time>
      </trkpt>
      <trkpt lat="44.67794" lon="-0.85152">
        <ele>53.6</ele>
        <time>2021-06-02T11:31:07.309Z</time>
      </trkpt>
      <trkpt lat="44.67784" lon="-0.85125">
        <ele>53.2</ele>
        <time>2021-06-02T11:31:10.893Z</time>
      </trkpt>
      <trkpt lat="44.67754" lon="-0.85108">
        <ele>52.1</ele>
        <time>2021-06-02T11:31:15.409Z</time>
      </trkpt>
      <trkpt lat="44.67741" lon="-0.85105">
        <ele>52</ele>
        <time>2021-06-02T11:31:17.916Z</time>
      </trkpt>
      <trkpt lat="44.67721" lon="-0.85094">
        <ele>52</ele>
        <time>2021-06-02T11:31:23.981Z</time>
      </trkpt>
      <trkpt lat="44.67693" lon="-0.85083">
        <ele>52</ele>
        <time>2021-06-02T11:31:32.191Z</time>
      </trkpt>
      <trkpt lat="44.67682" lon="-0.85085">
        <ele>52</ele>
        <time>2021-06-02T11:31:35.324Z</time>
      </trkpt>
      <trkpt lat="44.67671" lon="-0.851">
        <ele>52</ele>
        <time>2021-06-02T11:31:39.651Z</time>
      </trkpt>
      <trkpt lat="44.67647" lon="-0.85123">
        <ele>52.1</ele>
        <time>2021-06-02T11:31:48.120Z</time>
      </trkpt>
      <trkpt lat="44.67637" lon="-0.85137">
        <ele>52.2</ele>
        <time>2021-06-02T11:31:52.382Z</time>
      </trkpt>
      <trkpt lat="44.67633" lon="-0.85148">
        <ele>52.3</ele>
        <time>2021-06-02T11:31:55.152Z</time>
      </trkpt>
      <trkpt lat="44.67609" lon="-0.85179">
        <ele>52.3</ele>
        <time>2021-06-02T11:32:04.355Z</time>
      </trkpt>
      <trkpt lat="44.67594" lon="-0.85191">
        <ele>52.1</ele>
        <time>2021-06-02T11:32:07.468Z</time>
      </trkpt>
      <trkpt lat="44.67564" lon="-0.85235">
        <ele>50.5</ele>
        <time>2021-06-02T11:32:13.349Z</time>
      </trkpt>
      <trkpt lat="44.6755" lon="-0.8525">
        <ele>50</ele>
        <time>2021-06-02T11:32:15.954Z</time>
      </trkpt>
      <trkpt lat="44.67547" lon="-0.85263">
        <ele>50.1</ele>
        <time>2021-06-02T11:32:18.984Z</time>
      </trkpt>
      <trkpt lat="44.67529" lon="-0.85327">
        <ele>50.6</ele>
        <time>2021-06-02T11:32:34.233Z</time>
      </trkpt>
      <trkpt lat="44.67512" lon="-0.85351">
        <ele>51.2</ele>
        <time>2021-06-02T11:32:43.047Z</time>
      </trkpt>
      <trkpt lat="44.67405" lon="-0.85398">
        <ele>52.8</ele>
        <time>2021-06-02T11:33:19.466Z</time>
      </trkpt>
      <trkpt lat="44.67375" lon="-0.854">
        <ele>51.6</ele>
        <time>2021-06-02T11:33:23.423Z</time>
      </trkpt>
      <trkpt lat="44.67229" lon="-0.8563">
        <ele>50.7</ele>
        <time>2021-06-02T11:34:21.677Z</time>
      </trkpt>
      <trkpt lat="44.67305" lon="-0.85683">
        <ele>50.4</ele>
        <time>2021-06-02T11:34:44.403Z</time>
      </trkpt>
      <trkpt lat="44.67381" lon="-0.85735">
        <ele>52.1</ele>
        <time>2021-06-02T11:35:13.663Z</time>
      </trkpt>
      <trkpt lat="44.67368" lon="-0.8576">
        <ele>51.8</ele>
        <time>2021-06-02T11:35:17.534Z</time>
      </trkpt>
      <trkpt lat="44.6746" lon="-0.86114">
        <ele>49.3</ele>
        <time>2021-06-02T11:36:07.347Z</time>
      </trkpt>
      <trkpt lat="44.67466" lon="-0.86125">
        <ele>49.3</ele>
        <time>2021-06-02T11:36:10.131Z</time>
      </trkpt>
      <trkpt lat="44.67477" lon="-0.86131">
        <ele>49.3</ele>
        <time>2021-06-02T11:36:13.463Z</time>
      </trkpt>
      <trkpt lat="44.67652" lon="-0.86137">
        <ele>50.8</ele>
        <time>2021-06-02T11:37:07.111Z</time>
      </trkpt>
      <trkpt lat="44.67659" lon="-0.86142">
        <ele>50.8</ele>
        <time>2021-06-02T11:37:09.328Z</time>
      </trkpt>
      <trkpt lat="44.67664" lon="-0.8615">
        <ele>50.8</ele>
        <time>2021-06-02T11:37:11.467Z</time>
      </trkpt>
      <trkpt lat="44.67678" lon="-0.86177">
        <ele>51.1</ele>
        <time>2021-06-02T11:37:19.055Z</time>
      </trkpt>
      <trkpt lat="44.67684" lon="-0.86198">
        <ele>51.5</ele>
        <time>2021-06-02T11:37:24.940Z</time>
      </trkpt>
      <trkpt lat="44.67699" lon="-0.86218">
        <ele>51.9</ele>
        <time>2021-06-02T11:37:32.035Z</time>
      </trkpt>
      <trkpt lat="44.6774" lon="-0.86297">
        <ele>51.3</ele>
        <time>2021-06-02T11:37:45.083Z</time>
      </trkpt>
      <trkpt lat="44.67757" lon="-0.86348">
        <ele>50.3</ele>
        <time>2021-06-02T11:37:51.237Z</time>
      </trkpt>
      <trkpt lat="44.67757" lon="-0.86348">
        <ele>50.3</ele>
        <time>2021-06-02T11:37:51.237Z</time>
      </trkpt>
      <trkpt lat="44.67758" lon="-0.86352">
        <ele>50.4</ele>
        <time>2021-06-02T11:37:52.460Z</time>
      </trkpt>
      <trkpt lat="44.67767" lon="-0.86371">
        <ele>50.7</ele>
        <time>2021-06-02T11:37:57.978Z</time>
      </trkpt>
      <trkpt lat="44.678" lon="-0.86472">
        <ele>50.9</ele>
        <time>2021-06-02T11:38:20.829Z</time>
      </trkpt>
      <trkpt lat="44.6781" lon="-0.86507">
        <ele>50.5</ele>
        <time>2021-06-02T11:38:25.467Z</time>
      </trkpt>
      <trkpt lat="44.67805" lon="-0.86544">
        <ele>50.3</ele>
        <time>2021-06-02T11:38:30.571Z</time>
      </trkpt>
      <trkpt lat="44.678" lon="-0.86567">
        <ele>50.2</ele>
        <time>2021-06-02T11:38:35.004Z</time>
      </trkpt>
      <trkpt lat="44.67789" lon="-0.86576">
        <ele>50.1</ele>
        <time>2021-06-02T11:38:37.417Z</time>
      </trkpt>
      <trkpt lat="44.67773" lon="-0.86583">
        <ele>50</ele>
        <time>2021-06-02T11:38:41.752Z</time>
      </trkpt>
      <trkpt lat="44.67756" lon="-0.86632">
        <ele>48.9</ele>
        <time>2021-06-02T11:38:47.492Z</time>
      </trkpt>
      <trkpt lat="44.67735" lon="-0.8664">
        <ele>49.1</ele>
        <time>2021-06-02T11:38:54.202Z</time>
      </trkpt>
      <trkpt lat="44.67679" lon="-0.86717">
        <ele>49.5</ele>
        <time>2021-06-02T11:39:17.406Z</time>
      </trkpt>
      <trkpt lat="44.67661" lon="-0.86762">
        <ele>48.9</ele>
        <time>2021-06-02T11:39:23.643Z</time>
      </trkpt>
      <trkpt lat="44.67641" lon="-0.86776">
        <ele>49.2</ele>
        <time>2021-06-02T11:39:30.837Z</time>
      </trkpt>
      <trkpt lat="44.67622" lon="-0.86853">
        <ele>49.6</ele>
        <time>2021-06-02T11:39:48.309Z</time>
      </trkpt>
      <trkpt lat="44.67586" lon="-0.86912">
        <ele>49.1</ele>
        <time>2021-06-02T11:39:58.623Z</time>
      </trkpt>
      <trkpt lat="44.67582" lon="-0.86921">
        <ele>48.9</ele>
        <time>2021-06-02T11:39:59.763Z</time>
      </trkpt>
      <trkpt lat="44.6758" lon="-0.86925">
        <ele>48.7</ele>
        <time>2021-06-02T11:40:00.156Z</time>
      </trkpt>
      <trkpt lat="44.67577" lon="-0.86931">
        <ele>48.6</ele>
        <time>2021-06-02T11:40:01.012Z</time>
      </trkpt>
      <trkpt lat="44.67569" lon="-0.8696">
        <ele>47.7</ele>
        <time>2021-06-02T11:40:03.906Z</time>
      </trkpt>
      <trkpt lat="44.67565" lon="-0.87002">
        <ele>46.4</ele>
        <time>2021-06-02T11:40:07.760Z</time>
      </trkpt>
      <trkpt lat="44.67557" lon="-0.87023">
        <ele>45.9</ele>
        <time>2021-06-02T11:40:10.238Z</time>
      </trkpt>
      <trkpt lat="44.67503" lon="-0.87069">
        <ele>44.7</ele>
        <time>2021-06-02T11:40:20.624Z</time>
      </trkpt>
      <trkpt lat="44.67486" lon="-0.87094">
        <ele>44.2</ele>
        <time>2021-06-02T11:40:24.608Z</time>
      </trkpt>
      <trkpt lat="44.67481" lon="-0.87097">
        <ele>44.3</ele>
        <time>2021-06-02T11:40:26.454Z</time>
      </trkpt>
      <trkpt lat="44.67475" lon="-0.87098">
        <ele>44.4</ele>
        <time>2021-06-02T11:40:28.466Z</time>
      </trkpt>
      <trkpt lat="44.67468" lon="-0.87091">
        <ele>44.7</ele>
        <time>2021-06-02T11:40:32.032Z</time>
      </trkpt>
      <trkpt lat="44.67459" lon="-0.87071">
        <ele>45.4</ele>
        <time>2021-06-02T11:40:39.711Z</time>
      </trkpt>
      <trkpt lat="44.6746" lon="-0.87066">
        <ele>45.6</ele>
        <time>2021-06-02T11:40:41.586Z</time>
      </trkpt>
      <trkpt lat="44.67461" lon="-0.87059">
        <ele>45.8</ele>
        <time>2021-06-02T11:40:43.829Z</time>
      </trkpt>
      <trkpt lat="44.67465" lon="-0.87045">
        <ele>46.3</ele>
        <time>2021-06-02T11:40:49.012Z</time>
      </trkpt>
      <trkpt lat="44.67469" lon="-0.87042">
        <ele>46.4</ele>
        <time>2021-06-02T11:40:50.616Z</time>
      </trkpt>
      <trkpt lat="44.67475" lon="-0.87033">
        <ele>46.7</ele>
        <time>2021-06-02T11:40:54.224Z</time>
      </trkpt>
      <trkpt lat="44.67478" lon="-0.87012">
        <ele>47.5</ele>
        <time>2021-06-02T11:41:01.872Z</time>
      </trkpt>
      <trkpt lat="44.67469" lon="-0.86982">
        <ele>48.4</ele>
        <time>2021-06-02T11:41:12.026Z</time>
      </trkpt>
      <trkpt lat="44.67465" lon="-0.86953">
        <ele>48.9</ele>
        <time>2021-06-02T11:41:19.613Z</time>
      </trkpt>
      <trkpt lat="44.6744" lon="-0.86925">
        <ele>49.2</ele>
        <time>2021-06-02T11:41:29.488Z</time>
      </trkpt>
      <trkpt lat="44.6741" lon="-0.86951">
        <ele>48.7</ele>
        <time>2021-06-02T11:41:35.637Z</time>
      </trkpt>
      <trkpt lat="44.67404" lon="-0.86972">
        <ele>48.6</ele>
        <time>2021-06-02T11:41:39.787Z</time>
      </trkpt>
      <trkpt lat="44.67392" lon="-0.86978">
        <ele>48.9</ele>
        <time>2021-06-02T11:41:44.373Z</time>
      </trkpt>
      <trkpt lat="44.67372" lon="-0.8694">
        <ele>49.2</ele>
        <time>2021-06-02T11:41:54.713Z</time>
      </trkpt>
      <trkpt lat="44.6736" lon="-0.86902">
        <ele>49.1</ele>
        <time>2021-06-02T11:42:02.651Z</time>
      </trkpt>
      <trkpt lat="44.67366" lon="-0.86863">
        <ele>49.3</ele>
        <time>2021-06-02T11:42:11.218Z</time>
      </trkpt>
      <trkpt lat="44.67366" lon="-0.86815">
        <ele>49.5</ele>
        <time>2021-06-02T11:42:21.405Z</time>
      </trkpt>
      <trkpt lat="44.67372" lon="-0.86775">
        <ele>49.8</ele>
        <time>2021-06-02T11:42:30.472Z</time>
      </trkpt>
      <trkpt lat="44.67362" lon="-0.86742">
        <ele>49.7</ele>
        <time>2021-06-02T11:42:37.267Z</time>
      </trkpt>
      <trkpt lat="44.67358" lon="-0.86726">
        <ele>49.5</ele>
        <time>2021-06-02T11:42:39.310Z</time>
      </trkpt>
      <trkpt lat="44.67357" lon="-0.86726">
        <ele>49.4</ele>
        <time>2021-06-02T11:42:39.425Z</time>
      </trkpt>
      <trkpt lat="44.67353" lon="-0.8673">
        <ele>49.3</ele>
        <time>2021-06-02T11:42:40.220Z</time>
      </trkpt>
      <trkpt lat="44.67353" lon="-0.8673">
        <ele>49.3</ele>
        <time>2021-06-02T11:42:40.220Z</time>
      </trkpt>
      <trkpt lat="44.6735" lon="-0.86738">
        <ele>49.3</ele>
        <time>2021-06-02T11:42:42.036Z</time>
      </trkpt>
      <trkpt lat="44.6736" lon="-0.86786">
        <ele>49.5</ele>
        <time>2021-06-02T11:42:52.626Z</time>
      </trkpt>
      <trkpt lat="44.67347" lon="-0.86821">
        <ele>49.2</ele>
        <time>2021-06-02T11:42:57.752Z</time>
      </trkpt>
      <trkpt lat="44.67346" lon="-0.86871">
        <ele>49.1</ele>
        <time>2021-06-02T11:43:07.383Z</time>
      </trkpt>
      <trkpt lat="44.67335" lon="-0.86915">
        <ele>49</ele>
        <time>2021-06-02T11:43:16.336Z</time>
      </trkpt>
      <trkpt lat="44.67338" lon="-0.86937">
        <ele>49.4</ele>
        <time>2021-06-02T11:43:22.178Z</time>
      </trkpt>
      <trkpt lat="44.67342" lon="-0.86955">
        <ele>49.8</ele>
        <time>2021-06-02T11:43:27.390Z</time>
      </trkpt>
      <trkpt lat="44.6736" lon="-0.8697">
        <ele>49.7</ele>
        <time>2021-06-02T11:43:32.895Z</time>
      </trkpt>
      <trkpt lat="44.67371" lon="-0.86987">
        <ele>49.5</ele>
        <time>2021-06-02T11:43:35.819Z</time>
      </trkpt>
      <trkpt lat="44.67386" lon="-0.87025">
        <ele>48.6</ele>
        <time>2021-06-02T11:43:40.359Z</time>
      </trkpt>
      <trkpt lat="44.67391" lon="-0.87026">
        <ele>48.4</ele>
        <time>2021-06-02T11:43:41.026Z</time>
      </trkpt>
      <trkpt lat="44.67417" lon="-0.87019">
        <ele>47.5</ele>
        <time>2021-06-02T11:43:44.724Z</time>
      </trkpt>
      <trkpt lat="44.67427" lon="-0.87068">
        <ele>46.2</ele>
        <time>2021-06-02T11:43:49.693Z</time>
      </trkpt>
      <trkpt lat="44.67452" lon="-0.87117">
        <ele>44.7</ele>
        <time>2021-06-02T11:43:55.624Z</time>
      </trkpt>
      <trkpt lat="44.67441" lon="-0.87148">
        <ele>44.6</ele>
        <time>2021-06-02T11:44:02.175Z</time>
      </trkpt>
      <trkpt lat="44.67439" lon="-0.87176">
        <ele>44.4</ele>
        <time>2021-06-02T11:44:05.861Z</time>
      </trkpt>
      <trkpt lat="44.67424" lon="-0.87203">
        <ele>44.1</ele>
        <time>2021-06-02T11:44:10.215Z</time>
      </trkpt>
      <trkpt lat="44.67407" lon="-0.87267">
        <ele>43.6</ele>
        <time>2021-06-02T11:44:19.129Z</time>
      </trkpt>
      <trkpt lat="44.67409" lon="-0.87309">
        <ele>43.4</ele>
        <time>2021-06-02T11:44:26.798Z</time>
      </trkpt>
      <trkpt lat="44.67408" lon="-0.87368">
        <ele>44.1</ele>
        <time>2021-06-02T11:44:40.788Z</time>
      </trkpt>
      <trkpt lat="44.67428" lon="-0.87378">
        <ele>44.5</ele>
        <time>2021-06-02T11:44:48.033Z</time>
      </trkpt>
      <trkpt lat="44.67452" lon="-0.87474">
        <ele>45</ele>
        <time>2021-06-02T11:45:09.850Z</time>
      </trkpt>
      <trkpt lat="44.6746" lon="-0.87495">
        <ele>44.6</ele>
        <time>2021-06-02T11:45:12.492Z</time>
      </trkpt>
      <trkpt lat="44.67452" lon="-0.87526">
        <ele>44</ele>
        <time>2021-06-02T11:45:16.071Z</time>
      </trkpt>
      <trkpt lat="44.67426" lon="-0.87531">
        <ele>44.1</ele>
        <time>2021-06-02T11:45:23.750Z</time>
      </trkpt>
      <trkpt lat="44.67405" lon="-0.8756">
        <ele>43.6</ele>
        <time>2021-06-02T11:45:28.711Z</time>
      </trkpt>
      <trkpt lat="44.67387" lon="-0.87566">
        <ele>43.4</ele>
        <time>2021-06-02T11:45:32.082Z</time>
      </trkpt>
      <trkpt lat="44.67361" lon="-0.87599">
        <ele>43.1</ele>
        <time>2021-06-02T11:45:38.659Z</time>
      </trkpt>
      <trkpt lat="44.67343" lon="-0.87606">
        <ele>43</ele>
        <time>2021-06-02T11:45:43.533Z</time>
      </trkpt>
      <trkpt lat="44.6732" lon="-0.87584">
        <ele>43.2</ele>
        <time>2021-06-02T11:45:51.943Z</time>
      </trkpt>
      <trkpt lat="44.67292" lon="-0.87611">
        <ele>43.2</ele>
        <time>2021-06-02T11:46:01.531Z</time>
      </trkpt>
      <trkpt lat="44.67247" lon="-0.87637">
        <ele>42.7</ele>
        <time>2021-06-02T11:46:10.459Z</time>
      </trkpt>
      <trkpt lat="44.67223" lon="-0.87647">
        <ele>42.4</ele>
        <time>2021-06-02T11:46:14.951Z</time>
      </trkpt>
      <trkpt lat="44.67198" lon="-0.87644">
        <ele>42.4</ele>
        <time>2021-06-02T11:46:22.037Z</time>
      </trkpt>
      <trkpt lat="44.6718" lon="-0.87657">
        <ele>42.1</ele>
        <time>2021-06-02T11:46:25.540Z</time>
      </trkpt>
      <trkpt lat="44.67172" lon="-0.87669">
        <ele>42</ele>
        <time>2021-06-02T11:46:27.737Z</time>
      </trkpt>
      <trkpt lat="44.67153" lon="-0.8767">
        <ele>42.5</ele>
        <time>2021-06-02T11:46:34.810Z</time>
      </trkpt>
      <trkpt lat="44.67144" lon="-0.87673">
        <ele>42.8</ele>
        <time>2021-06-02T11:46:38.527Z</time>
      </trkpt>
      <trkpt lat="44.67135" lon="-0.87686">
        <ele>43.1</ele>
        <time>2021-06-02T11:46:43.156Z</time>
      </trkpt>
      <trkpt lat="44.67108" lon="-0.8771">
        <ele>43.7</ele>
        <time>2021-06-02T11:46:54.052Z</time>
      </trkpt>
      <trkpt lat="44.67084" lon="-0.87722">
        <ele>44.3</ele>
        <time>2021-06-02T11:47:03.225Z</time>
      </trkpt>
      <trkpt lat="44.67063" lon="-0.87748">
        <ele>45</ele>
        <time>2021-06-02T11:47:13.476Z</time>
      </trkpt>
      <trkpt lat="44.67046" lon="-0.87796">
        <ele>45.1</ele>
        <time>2021-06-02T11:47:24.511Z</time>
      </trkpt>
      <trkpt lat="44.67039" lon="-0.87829">
        <ele>45.3</ele>
        <time>2021-06-02T11:47:31.986Z</time>
      </trkpt>
      <trkpt lat="44.67047" lon="-0.87854">
        <ele>44</ele>
        <time>2021-06-02T11:47:34.035Z</time>
      </trkpt>
      <trkpt lat="44.67054" lon="-0.87862">
        <ele>43.1</ele>
        <time>2021-06-02T11:47:35.069Z</time>
      </trkpt>
      <trkpt lat="44.67057" lon="-0.8788">
        <ele>42.4</ele>
        <time>2021-06-02T11:47:36.607Z</time>
      </trkpt>
      <trkpt lat="44.67048" lon="-0.87945">
        <ele>41.4</ele>
        <time>2021-06-02T11:47:44.155Z</time>
      </trkpt>
      <trkpt lat="44.67043" lon="-0.88001">
        <ele>39.9</ele>
        <time>2021-06-02T11:47:49.577Z</time>
      </trkpt>
      <trkpt lat="44.6703" lon="-0.88015">
        <ele>40.4</ele>
        <time>2021-06-02T11:47:55.997Z</time>
      </trkpt>
      <trkpt lat="44.67008" lon="-0.88009">
        <ele>42</ele>
        <time>2021-06-02T11:48:08.868Z</time>
      </trkpt>
      <trkpt lat="44.66981" lon="-0.88033">
        <ele>42.8</ele>
        <time>2021-06-02T11:48:20.574Z</time>
      </trkpt>
      <trkpt lat="44.6698" lon="-0.88034">
        <ele>42.9</ele>
        <time>2021-06-02T11:48:21.338Z</time>
      </trkpt>
      <trkpt lat="44.66972" lon="-0.88055">
        <ele>42.7</ele>
        <time>2021-06-02T11:48:24.385Z</time>
      </trkpt>
      <trkpt lat="44.66981" lon="-0.88085">
        <ele>40.8</ele>
        <time>2021-06-02T11:48:27.041Z</time>
      </trkpt>
      <trkpt lat="44.66983" lon="-0.88106">
        <ele>40.5</ele>
        <time>2021-06-02T11:48:29.494Z</time>
      </trkpt>
      <trkpt lat="44.66982" lon="-0.88124">
        <ele>40.5</ele>
        <time>2021-06-02T11:48:33.120Z</time>
      </trkpt>
      <trkpt lat="44.66982" lon="-0.88137">
        <ele>40.4</ele>
        <time>2021-06-02T11:48:34.805Z</time>
      </trkpt>
      <trkpt lat="44.66984" lon="-0.88163">
        <ele>40.2</ele>
        <time>2021-06-02T11:48:38.196Z</time>
      </trkpt>
      <trkpt lat="44.66971" lon="-0.88204">
        <ele>40.9</ele>
        <time>2021-06-02T11:48:49.478Z</time>
      </trkpt>
      <trkpt lat="44.66957" lon="-0.88215">
        <ele>41.8</ele>
        <time>2021-06-02T11:48:57.729Z</time>
      </trkpt>
      <trkpt lat="44.66951" lon="-0.88242">
        <ele>42</ele>
        <time>2021-06-02T11:49:03.979Z</time>
      </trkpt>
      <trkpt lat="44.6694" lon="-0.88255">
        <ele>42.5</ele>
        <time>2021-06-02T11:49:09.936Z</time>
      </trkpt>
      <trkpt lat="44.6694" lon="-0.88294">
        <ele>41.8</ele>
        <time>2021-06-02T11:49:14.184Z</time>
      </trkpt>
      <trkpt lat="44.66935" lon="-0.88306">
        <ele>41.9</ele>
        <time>2021-06-02T11:49:17.263Z</time>
      </trkpt>
      <trkpt lat="44.66937" lon="-0.88337">
        <ele>41.4</ele>
        <time>2021-06-02T11:49:20.756Z</time>
      </trkpt>
      <trkpt lat="44.66934" lon="-0.88345">
        <ele>41.6</ele>
        <time>2021-06-02T11:49:23.296Z</time>
      </trkpt>
      <trkpt lat="44.66928" lon="-0.88355">
        <ele>42</ele>
        <time>2021-06-02T11:49:27.631Z</time>
      </trkpt>
      <trkpt lat="44.66896" lon="-0.88383">
        <ele>43.5</ele>
        <time>2021-06-02T11:49:44.381Z</time>
      </trkpt>
      <trkpt lat="44.66888" lon="-0.88385">
        <ele>43.9</ele>
        <time>2021-06-02T11:49:48.373Z</time>
      </trkpt>
      <trkpt lat="44.66856" lon="-0.88394">
        <ele>45.3</ele>
        <time>2021-06-02T11:50:03.555Z</time>
      </trkpt>
      <trkpt lat="44.66832" lon="-0.88408">
        <ele>46.1</ele>
        <time>2021-06-02T11:50:13.776Z</time>
      </trkpt>
      <trkpt lat="44.6681" lon="-0.8841">
        <ele>45.8</ele>
        <time>2021-06-02T11:50:17.651Z</time>
      </trkpt>
      <trkpt lat="44.66797" lon="-0.88428">
        <ele>45.2</ele>
        <time>2021-06-02T11:50:20.228Z</time>
      </trkpt>
      <trkpt lat="44.66761" lon="-0.88458">
        <ele>43.6</ele>
        <time>2021-06-02T11:50:25.833Z</time>
      </trkpt>
      <trkpt lat="44.66747" lon="-0.8846">
        <ele>43.4</ele>
        <time>2021-06-02T11:50:28.288Z</time>
      </trkpt>
      <trkpt lat="44.66728" lon="-0.88477">
        <ele>42.4</ele>
        <time>2021-06-02T11:50:31.135Z</time>
      </trkpt>
      <trkpt lat="44.66714" lon="-0.88498">
        <ele>41.6</ele>
        <time>2021-06-02T11:50:33.855Z</time>
      </trkpt>
      <trkpt lat="44.66711" lon="-0.885">
        <ele>41.5</ele>
        <time>2021-06-02T11:50:34.337Z</time>
      </trkpt>
      <trkpt lat="44.66699" lon="-0.88498">
        <ele>41.4</ele>
        <time>2021-06-02T11:50:36.615Z</time>
      </trkpt>
      <trkpt lat="44.66675" lon="-0.88496">
        <ele>41.2</ele>
        <time>2021-06-02T11:50:41.145Z</time>
      </trkpt>
      <trkpt lat="44.66662" lon="-0.88486">
        <ele>40.9</ele>
        <time>2021-06-02T11:50:43.547Z</time>
      </trkpt>
      <trkpt lat="44.66655" lon="-0.88489">
        <ele>40.4</ele>
        <time>2021-06-02T11:50:44.387Z</time>
      </trkpt>
      <trkpt lat="44.6664" lon="-0.88505">
        <ele>39.3</ele>
        <time>2021-06-02T11:50:46.497Z</time>
      </trkpt>
      <trkpt lat="44.66619" lon="-0.8854">
        <ele>37.5</ele>
        <time>2021-06-02T11:50:50.243Z</time>
      </trkpt>
      <trkpt lat="44.66611" lon="-0.88558">
        <ele>37</ele>
        <time>2021-06-02T11:50:52.370Z</time>
      </trkpt>
      <trkpt lat="44.66611" lon="-0.88558">
        <ele>37</ele>
        <time>2021-06-02T11:51:06.041Z</time>
      </trkpt>
      <trkpt lat="44.66607" lon="-0.88569">
        <ele>36.7</ele>
        <time>2021-06-02T11:51:07.267Z</time>
      </trkpt>
      <trkpt lat="44.666" lon="-0.88583">
        <ele>36.4</ele>
        <time>2021-06-02T11:51:09.144Z</time>
      </trkpt>
      <trkpt lat="44.66595" lon="-0.88584">
        <ele>36.3</ele>
        <time>2021-06-02T11:51:09.967Z</time>
      </trkpt>
      <trkpt lat="44.66572" lon="-0.88594">
        <ele>36</ele>
        <time>2021-06-02T11:51:14.261Z</time>
      </trkpt>
      <trkpt lat="44.66534" lon="-0.88617">
        <ele>35.6</ele>
        <time>2021-06-02T11:51:21.915Z</time>
      </trkpt>
      <trkpt lat="44.66513" lon="-0.88638">
        <ele>35.3</ele>
        <time>2021-06-02T11:51:26.560Z</time>
      </trkpt>
      <trkpt lat="44.6644" lon="-0.88636">
        <ele>35</ele>
        <time>2021-06-02T11:51:45.959Z</time>
      </trkpt>
      <trkpt lat="44.66407" lon="-0.88664">
        <ele>35</ele>
        <time>2021-06-02T11:51:56.844Z</time>
      </trkpt>
      <trkpt lat="44.66392" lon="-0.88681">
        <ele>35.2</ele>
        <time>2021-06-02T11:52:02.857Z</time>
      </trkpt>
      <trkpt lat="44.66364" lon="-0.88653">
        <ele>35.1</ele>
        <time>2021-06-02T11:52:12.146Z</time>
      </trkpt>
      <trkpt lat="44.66359" lon="-0.8862">
        <ele>35.4</ele>
        <time>2021-06-02T11:52:19.800Z</time>
      </trkpt>
      <trkpt lat="44.66326" lon="-0.88592">
        <ele>35.9</ele>
        <time>2021-06-02T11:52:32.153Z</time>
      </trkpt>
      <trkpt lat="44.66304" lon="-0.88568">
        <ele>36.1</ele>
        <time>2021-06-02T11:52:40.571Z</time>
      </trkpt>
      <trkpt lat="44.66291" lon="-0.88532">
        <ele>36.3</ele>
        <time>2021-06-02T11:52:49.233Z</time>
      </trkpt>
      <trkpt lat="44.66266" lon="-0.88492">
        <ele>37.2</ele>
        <time>2021-06-02T11:53:02.905Z</time>
      </trkpt>
      <trkpt lat="44.66269" lon="-0.88464">
        <ele>38.6</ele>
        <time>2021-06-02T11:53:14.309Z</time>
      </trkpt>
      <trkpt lat="44.66233" lon="-0.88443">
        <ele>39.8</ele>
        <time>2021-06-02T11:53:29.639Z</time>
      </trkpt>
      <trkpt lat="44.66198" lon="-0.88438">
        <ele>38.7</ele>
        <time>2021-06-02T11:53:34.692Z</time>
      </trkpt>
      <trkpt lat="44.66176" lon="-0.88442">
        <ele>37.7</ele>
        <time>2021-06-02T11:53:37.479Z</time>
      </trkpt>
      <trkpt lat="44.66142" lon="-0.88452">
        <ele>37.3</ele>
        <time>2021-06-02T11:53:43.751Z</time>
      </trkpt>
      <trkpt lat="44.66126" lon="-0.88451">
        <ele>37.5</ele>
        <time>2021-06-02T11:53:48.858Z</time>
      </trkpt>
      <trkpt lat="44.66101" lon="-0.88447">
        <ele>37.8</ele>
        <time>2021-06-02T11:53:56.835Z</time>
      </trkpt>
      <trkpt lat="44.661" lon="-0.8843">
        <ele>38.4</ele>
        <time>2021-06-02T11:54:02.805Z</time>
      </trkpt>
      <trkpt lat="44.66084" lon="-0.8841">
        <ele>39.4</ele>
        <time>2021-06-02T11:54:13.154Z</time>
      </trkpt>
      <trkpt lat="44.66067" lon="-0.88404">
        <ele>39.8</ele>
        <time>2021-06-02T11:54:19.413Z</time>
      </trkpt>
      <trkpt lat="44.66058" lon="-0.88405">
        <ele>39.8</ele>
        <time>2021-06-02T11:54:21.962Z</time>
      </trkpt>
      <trkpt lat="44.66049" lon="-0.88409">
        <ele>39.7</ele>
        <time>2021-06-02T11:54:23.687Z</time>
      </trkpt>
      <trkpt lat="44.6603" lon="-0.88406">
        <ele>39.9</ele>
        <time>2021-06-02T11:54:29.659Z</time>
      </trkpt>
      <trkpt lat="44.66014" lon="-0.88409">
        <ele>39.9</ele>
        <time>2021-06-02T11:54:34.218Z</time>
      </trkpt>
      <trkpt lat="44.65998" lon="-0.88432">
        <ele>39.9</ele>
        <time>2021-06-02T11:54:40.680Z</time>
      </trkpt>
      <trkpt lat="44.65992" lon="-0.88431">
        <ele>40</ele>
        <time>2021-06-02T11:54:42.691Z</time>
      </trkpt>
      <trkpt lat="44.6598" lon="-0.88428">
        <ele>40.3</ele>
        <time>2021-06-02T11:54:47.135Z</time>
      </trkpt>
      <trkpt lat="44.6597" lon="-0.88546">
        <ele>37.9</ele>
        <time>2021-06-02T11:54:59.647Z</time>
      </trkpt>
      <trkpt lat="44.6597" lon="-0.8855">
        <ele>37.8</ele>
        <time>2021-06-02T11:55:00.040Z</time>
      </trkpt>
      <trkpt lat="44.65969" lon="-0.88553">
        <ele>37.7</ele>
        <time>2021-06-02T11:55:00.343Z</time>
      </trkpt>
      <trkpt lat="44.65964" lon="-0.88553">
        <ele>37.7</ele>
        <time>2021-06-02T11:55:01.755Z</time>
      </trkpt>
      <trkpt lat="44.6595" lon="-0.88541">
        <ele>38</ele>
        <time>2021-06-02T11:55:07.318Z</time>
      </trkpt>
      <trkpt lat="44.65937" lon="-0.88539">
        <ele>38.1</ele>
        <time>2021-06-02T11:55:11.290Z</time>
      </trkpt>
      <trkpt lat="44.65923" lon="-0.88552">
        <ele>37.8</ele>
        <time>2021-06-02T11:55:14.087Z</time>
      </trkpt>
      <trkpt lat="44.6591" lon="-0.88556">
        <ele>37.4</ele>
        <time>2021-06-02T11:55:16.023Z</time>
      </trkpt>
      <trkpt lat="44.65905" lon="-0.88562">
        <ele>37.1</ele>
        <time>2021-06-02T11:55:16.845Z</time>
      </trkpt>
      <trkpt lat="44.65884" lon="-0.88598">
        <ele>35.6</ele>
        <time>2021-06-02T11:55:20.997Z</time>
      </trkpt>
      <trkpt lat="44.65863" lon="-0.88609">
        <ele>34.8</ele>
        <time>2021-06-02T11:55:24.074Z</time>
      </trkpt>
      <trkpt lat="44.65855" lon="-0.88607">
        <ele>34.5</ele>
        <time>2021-06-02T11:55:25.177Z</time>
      </trkpt>
      <trkpt lat="44.65845" lon="-0.88608">
        <ele>34.1</ele>
        <time>2021-06-02T11:55:26.498Z</time>
      </trkpt>
      <trkpt lat="44.65836" lon="-0.88612">
        <ele>33.8</ele>
        <time>2021-06-02T11:55:27.847Z</time>
      </trkpt>
      <trkpt lat="44.65813" lon="-0.88598">
        <ele>34.1</ele>
        <time>2021-06-02T11:55:35.797Z</time>
      </trkpt>
      <trkpt lat="44.65798" lon="-0.88604">
        <ele>34.2</ele>
        <time>2021-06-02T11:55:40.476Z</time>
      </trkpt>
      <trkpt lat="44.65788" lon="-0.886">
        <ele>34.3</ele>
        <time>2021-06-02T11:55:43.696Z</time>
      </trkpt>
      <trkpt lat="44.65773" lon="-0.88586">
        <ele>34.7</ele>
        <time>2021-06-02T11:55:50.080Z</time>
      </trkpt>
      <trkpt lat="44.6577" lon="-0.88598">
        <ele>34.6</ele>
        <time>2021-06-02T11:55:51.723Z</time>
      </trkpt>
      <trkpt lat="44.65764" lon="-0.88608">
        <ele>34.5</ele>
        <time>2021-06-02T11:55:53.420Z</time>
      </trkpt>
      <trkpt lat="44.6576" lon="-0.8861">
        <ele>34.6</ele>
        <time>2021-06-02T11:55:54.949Z</time>
      </trkpt>
      <trkpt lat="44.65744" lon="-0.88603">
        <ele>35</ele>
        <time>2021-06-02T11:56:01.006Z</time>
      </trkpt>
      <trkpt lat="44.65734" lon="-0.88611">
        <ele>35.3</ele>
        <time>2021-06-02T11:56:05.275Z</time>
      </trkpt>
      <trkpt lat="44.6573" lon="-0.88612">
        <ele>35.5</ele>
        <time>2021-06-02T11:56:07.271Z</time>
      </trkpt>
      <trkpt lat="44.6571" lon="-0.88629">
        <ele>36.2</ele>
        <time>2021-06-02T11:56:16.367Z</time>
      </trkpt>
      <trkpt lat="44.65706" lon="-0.8863">
        <ele>36.3</ele>
        <time>2021-06-02T11:56:17.848Z</time>
      </trkpt>
      <trkpt lat="44.65703" lon="-0.88628">
        <ele>36.5</ele>
        <time>2021-06-02T11:56:19.606Z</time>
      </trkpt>
      <trkpt lat="44.65697" lon="-0.88613">
        <ele>36.8</ele>
        <time>2021-06-02T11:56:24.063Z</time>
      </trkpt>
      <trkpt lat="44.65689" lon="-0.88603">
        <ele>37.1</ele>
        <time>2021-06-02T11:56:28.131Z</time>
      </trkpt>
      <trkpt lat="44.65685" lon="-0.88592">
        <ele>37.3</ele>
        <time>2021-06-02T11:56:31.266Z</time>
      </trkpt>
      <trkpt lat="44.65683" lon="-0.8858">
        <ele>37.5</ele>
        <time>2021-06-02T11:56:34.396Z</time>
      </trkpt>
      <trkpt lat="44.65681" lon="-0.88573">
        <ele>37.6</ele>
        <time>2021-06-02T11:56:36.223Z</time>
      </trkpt>
      <trkpt lat="44.65678" lon="-0.88568">
        <ele>37.8</ele>
        <time>2021-06-02T11:56:38.391Z</time>
      </trkpt>
      <trkpt lat="44.65674" lon="-0.8857">
        <ele>37.9</ele>
        <time>2021-06-02T11:56:39.920Z</time>
      </trkpt>
      <trkpt lat="44.65669" lon="-0.88602">
        <ele>37.9</ele>
        <time>2021-06-02T11:56:46.501Z</time>
      </trkpt>
      <trkpt lat="44.65673" lon="-0.88651">
        <ele>37.7</ele>
        <time>2021-06-02T11:56:55.614Z</time>
      </trkpt>
      <trkpt lat="44.6567" lon="-0.88663">
        <ele>37.8</ele>
        <time>2021-06-02T11:56:58.457Z</time>
      </trkpt>
      <trkpt lat="44.65659" lon="-0.88697">
        <ele>37.2</ele>
        <time>2021-06-02T11:57:02.650Z</time>
      </trkpt>
      <trkpt lat="44.65646" lon="-0.88723">
        <ele>36.8</ele>
        <time>2021-06-02T11:57:06.427Z</time>
      </trkpt>
      <trkpt lat="44.65643" lon="-0.88736">
        <ele>36.5</ele>
        <time>2021-06-02T11:57:07.830Z</time>
      </trkpt>
      <trkpt lat="44.65636" lon="-0.88753">
        <ele>36.4</ele>
        <time>2021-06-02T11:57:11.386Z</time>
      </trkpt>
      <trkpt lat="44.65632" lon="-0.88753">
        <ele>36.6</ele>
        <time>2021-06-02T11:57:13.361Z</time>
      </trkpt>
      <trkpt lat="44.65625" lon="-0.88768">
        <ele>36.5</ele>
        <time>2021-06-02T11:57:15.781Z</time>
      </trkpt>
      <trkpt lat="44.65603" lon="-0.88799">
        <ele>36.4</ele>
        <time>2021-06-02T11:57:24.166Z</time>
      </trkpt>
      <trkpt lat="44.65524" lon="-0.88847">
        <ele>40.3</ele>
        <time>2021-06-02T11:58:05.399Z</time>
      </trkpt>
      <trkpt lat="44.65496" lon="-0.88904">
        <ele>38.9</ele>
        <time>2021-06-02T11:58:12.692Z</time>
      </trkpt>
      <trkpt lat="44.65466" lon="-0.88965">
        <ele>38</ele>
        <time>2021-06-02T11:58:21.575Z</time>
      </trkpt>
      <trkpt lat="44.65462" lon="-0.88986">
        <ele>37.6</ele>
        <time>2021-06-02T11:58:23.928Z</time>
      </trkpt>
      <trkpt lat="44.65462" lon="-0.88995">
        <ele>37.3</ele>
        <time>2021-06-02T11:58:24.719Z</time>
      </trkpt>
      <trkpt lat="44.65464" lon="-0.89013">
        <ele>36.7</ele>
        <time>2021-06-02T11:58:26.330Z</time>
      </trkpt>
      <trkpt lat="44.6545" lon="-0.89042">
        <ele>37.1</ele>
        <time>2021-06-02T11:58:34.584Z</time>
      </trkpt>
      <trkpt lat="44.65448" lon="-0.89068">
        <ele>36.5</ele>
        <time>2021-06-02T11:58:37.718Z</time>
      </trkpt>
      <trkpt lat="44.65416" lon="-0.89088">
        <ele>37.8</ele>
        <time>2021-06-02T11:58:51.611Z</time>
      </trkpt>
      <trkpt lat="44.65396" lon="-0.89117">
        <ele>36.8</ele>
        <time>2021-06-02T11:58:55.592Z</time>
      </trkpt>
      <trkpt lat="44.65367" lon="-0.89153">
        <ele>35.3</ele>
        <time>2021-06-02T11:59:00.748Z</time>
      </trkpt>
      <trkpt lat="44.65348" lon="-0.89187">
        <ele>33.5</ele>
        <time>2021-06-02T11:59:04.192Z</time>
      </trkpt>
      <trkpt lat="44.65325" lon="-0.89245">
        <ele>29.3</ele>
        <time>2021-06-02T11:59:09.611Z</time>
      </trkpt>
      <trkpt lat="44.65316" lon="-0.89253">
        <ele>29</ele>
        <time>2021-06-02T11:59:11.190Z</time>
      </trkpt>
      <trkpt lat="44.65292" lon="-0.89275">
        <ele>28.8</ele>
        <time>2021-06-02T11:59:18.500Z</time>
      </trkpt>
      <trkpt lat="44.65282" lon="-0.89265">
        <ele>28.9</ele>
        <time>2021-06-02T11:59:22.246Z</time>
      </trkpt>
      <trkpt lat="44.65273" lon="-0.89273">
        <ele>28.9</ele>
        <time>2021-06-02T11:59:25.253Z</time>
      </trkpt>
      <trkpt lat="44.65283" lon="-0.893">
        <ele>28.8</ele>
        <time>2021-06-02T11:59:30.964Z</time>
      </trkpt>
      <trkpt lat="44.6528" lon="-0.89335">
        <ele>28.6</ele>
        <time>2021-06-02T11:59:35.711Z</time>
      </trkpt>
      <trkpt lat="44.6528" lon="-0.89335">
        <ele>28.6</ele>
        <time>2021-06-02T11:59:35.711Z</time>
      </trkpt>
      <trkpt lat="44.6528" lon="-0.89344">
        <ele>28.5</ele>
        <time>2021-06-02T11:59:36.809Z</time>
      </trkpt>
      <trkpt lat="44.65287" lon="-0.89374">
        <ele>28.1</ele>
        <time>2021-06-02T11:59:40.557Z</time>
      </trkpt>
      <trkpt lat="44.65279" lon="-0.89388">
        <ele>28.2</ele>
        <time>2021-06-02T11:59:44.443Z</time>
      </trkpt>
      <trkpt lat="44.65277" lon="-0.89415">
        <ele>28</ele>
        <time>2021-06-02T11:59:47.983Z</time>
      </trkpt>
      <trkpt lat="44.65261" lon="-0.89446">
        <ele>29</ele>
        <time>2021-06-02T11:59:59.575Z</time>
      </trkpt>
      <trkpt lat="44.65242" lon="-0.89471">
        <ele>29.8</ele>
        <time>2021-06-02T12:00:09.805Z</time>
      </trkpt>
      <trkpt lat="44.65229" lon="-0.89524">
        <ele>30.6</ele>
        <time>2021-06-02T12:00:23.604Z</time>
      </trkpt>
      <trkpt lat="44.65133" lon="-0.89544">
        <ele>30.8</ele>
        <time>2021-06-02T12:00:51.539Z</time>
      </trkpt>
      <trkpt lat="44.65123" lon="-0.8955">
        <ele>30.4</ele>
        <time>2021-06-02T12:00:53.016Z</time>
      </trkpt>
      <trkpt lat="44.65125" lon="-0.8956">
        <ele>30</ele>
        <time>2021-06-02T12:00:53.874Z</time>
      </trkpt>
      <trkpt lat="44.65134" lon="-0.89624">
        <ele>29</ele>
        <time>2021-06-02T12:01:01.285Z</time>
      </trkpt>
      <trkpt lat="44.65132" lon="-0.89641">
        <ele>28.8</ele>
        <time>2021-06-02T12:01:03.369Z</time>
      </trkpt>
      <trkpt lat="44.65131" lon="-0.89643">
        <ele>28.7</ele>
        <time>2021-06-02T12:01:03.565Z</time>
      </trkpt>
    </trkseg>
  </trk>
</gpx>